sensor_id;sensor_type;location;lat;lon;timestamp;temperature;humidity
52669;DHT22;59898;52.786;6.892;2022-09-21T00:00:50;11.40;99.90
52669;DHT22;59898;52.786;6.892;2022-09-21T00:04:10;11.40;99.90
52669;DHT22;59898;52.786;6.892;2022-09-21T00:07:31;11.40;99.90
52669;DHT22;59898;52.786;6.892;2022-09-21T00:10:52;11.20;99.90
52669;DHT22;59898;52.786;6.892;2022-09-21T00:14:13;11.20;99.90
52669;DHT22;59898;52.786;6.892;2022-09-21T00:17:35;11.20;99.90
52669;DHT22;59898;52.786;6.892;2022-09-21T00:20:56;11.10;99.90
52669;DHT22;59898;52.786;6.892;2022-09-21T00:24:16;11.00;99.90
52669;DHT22;59898;52.786;6.892;2022-09-21T00:27:37;11.00;99.90
52669;DHT22;59898;52.786;6.892;2022-09-21T00:31:06;10.90;99.90
52669;DHT22;59898;52.786;6.892;2022-09-21T00:34:27;10.90;99.90
52669;DHT22;59898;52.786;6.892;2022-09-21T00:37:48;10.90;99.90
52669;DHT22;59898;52.786;6.892;2022-09-21T00:41:10;10.90;99.90
52669;DHT22;59898;52.786;6.892;2022-09-21T00:44:32;10.90;99.90
52669;DHT22;59898;52.786;6.892;2022-09-21T00:47:53;11.00;99.90
52669;DHT22;59898;52.786;6.892;2022-09-21T00:51:14;11.00;99.90
52669;DHT22;59898;52.786;6.892;2022-09-21T00:54:44;11.00;99.90
52669;DHT22;59898;52.786;6.892;2022-09-21T00:58:09;11.10;99.90
52669;DHT22;59898;52.786;6.892;2022-09-21T01:01:32;11.10;99.90
52669;DHT22;59898;52.786;6.892;2022-09-21T01:04:54;11.00;99.90
52669;DHT22;59898;52.786;6.892;2022-09-21T01:08:17;11.00;99.90
52669;DHT22;59898;52.786;6.892;2022-09-21T01:30:12;10.90;99.90
52669;DHT22;59898;52.786;6.892;2022-09-21T01:33:40;10.90;99.90
52669;DHT22;59898;52.786;6.892;2022-09-21T01:37:06;10.90;99.90
52669;DHT22;59898;52.786;6.892;2022-09-21T01:40:35;10.80;99.90
52669;DHT22;59898;52.786;6.892;2022-09-21T01:44:12;10.80;99.90
52669;DHT22;59898;52.786;6.892;2022-09-21T01:47:36;10.80;99.90
52669;DHT22;59898;52.786;6.892;2022-09-21T01:51:00;10.70;99.90
52669;DHT22;59898;52.786;6.892;2022-09-21T01:54:27;10.60;99.90
52669;DHT22;59898;52.786;6.892;2022-09-21T01:57:59;10.60;99.90
52669;DHT22;59898;52.786;6.892;2022-09-21T02:01:24;10.60;99.90
52669;DHT22;59898;52.786;6.892;2022-09-21T02:04:46;10.60;99.90
52669;DHT22;59898;52.786;6.892;2022-09-21T02:08:08;10.50;99.90
52669;DHT22;59898;52.786;6.892;2022-09-21T02:11:29;10.50;99.90
52669;DHT22;59898;52.786;6.892;2022-09-21T02:14:52;10.50;99.90
52669;DHT22;59898;52.786;6.892;2022-09-21T02:22:30;10.50;99.90
52669;DHT22;59898;52.786;6.892;2022-09-21T02:26:02;10.40;99.90
52669;DHT22;59898;52.786;6.892;2022-09-21T02:33:10;10.30;99.90
52669;DHT22;59898;52.786;6.892;2022-09-21T02:36:38;10.30;99.90
52669;DHT22;59898;52.786;6.892;2022-09-21T02:43:40;10.10;99.90
52669;DHT22;59898;52.786;6.892;2022-09-21T02:47:14;10.10;99.90
52669;DHT22;59898;52.786;6.892;2022-09-21T02:51:04;10.10;99.90
52669;DHT22;59898;52.786;6.892;2022-09-21T02:54:30;10.10;99.90
52669;DHT22;59898;52.786;6.892;2022-09-21T02:57:52;10.10;99.90
52669;DHT22;59898;52.786;6.892;2022-09-21T03:01:14;10.10;99.90
52669;DHT22;59898;52.786;6.892;2022-09-21T03:04:36;10.10;99.90
52669;DHT22;59898;52.786;6.892;2022-09-21T03:07:56;10.00;99.90
52669;DHT22;59898;52.786;6.892;2022-09-21T03:11:18;10.00;99.90
52669;DHT22;59898;52.786;6.892;2022-09-21T03:14:39;10.00;99.90
52669;DHT22;59898;52.786;6.892;2022-09-21T03:18:00;10.00;99.90
52669;DHT22;59898;52.786;6.892;2022-09-21T03:21:21;10.00;99.90
52669;DHT22;59898;52.786;6.892;2022-09-21T03:24:42;9.90;99.90
52669;DHT22;59898;52.786;6.892;2022-09-21T03:28:06;9.90;99.90
52669;DHT22;59898;52.786;6.892;2022-09-21T03:31:26;9.80;99.90
52669;DHT22;59898;52.786;6.892;2022-09-21T03:34:47;9.70;99.90
52669;DHT22;59898;52.786;6.892;2022-09-21T03:38:08;9.70;99.90
52669;DHT22;59898;52.786;6.892;2022-09-21T03:41:29;9.70;99.90
52669;DHT22;59898;52.786;6.892;2022-09-21T03:44:49;9.70;99.90
52669;DHT22;59898;52.786;6.892;2022-09-21T03:48:11;9.70;99.90
52669;DHT22;59898;52.786;6.892;2022-09-21T03:51:32;9.70;99.90
52669;DHT22;59898;52.786;6.892;2022-09-21T03:54:52;9.80;99.90
52669;DHT22;59898;52.786;6.892;2022-09-21T03:58:14;9.80;99.90
52669;DHT22;59898;52.786;6.892;2022-09-21T04:01:35;9.80;99.90
52669;DHT22;59898;52.786;6.892;2022-09-21T04:04:55;9.80;99.90
52669;DHT22;59898;52.786;6.892;2022-09-21T04:08:16;9.60;99.90
52669;DHT22;59898;52.786;6.892;2022-09-21T04:11:37;9.40;99.90
52669;DHT22;59898;52.786;6.892;2022-09-21T04:14:58;9.20;99.90
52669;DHT22;59898;52.786;6.892;2022-09-21T04:18:19;9.10;99.90
52669;DHT22;59898;52.786;6.892;2022-09-21T04:21:39;9.10;99.90
52669;DHT22;59898;52.786;6.892;2022-09-21T04:25:00;9.10;99.90
52669;DHT22;59898;52.786;6.892;2022-09-21T04:28:21;9.20;99.90
52669;DHT22;59898;52.786;6.892;2022-09-21T04:31:43;9.20;99.90
52669;DHT22;59898;52.786;6.892;2022-09-21T04:35:03;9.30;99.90
52669;DHT22;59898;52.786;6.892;2022-09-21T04:38:24;9.30;99.90
52669;DHT22;59898;52.786;6.892;2022-09-21T04:41:45;9.40;99.90
52669;DHT22;59898;52.786;6.892;2022-09-21T04:45:06;9.40;99.90
52669;DHT22;59898;52.786;6.892;2022-09-21T04:48:27;9.40;99.90
52669;DHT22;59898;52.786;6.892;2022-09-21T04:51:47;9.50;99.90
52669;DHT22;59898;52.786;6.892;2022-09-21T04:55:09;9.50;99.90
52669;DHT22;59898;52.786;6.892;2022-09-21T04:58:29;9.50;99.90
52669;DHT22;59898;52.786;6.892;2022-09-21T05:01:50;9.40;99.90
52669;DHT22;59898;52.786;6.892;2022-09-21T05:05:11;9.40;99.90
52669;DHT22;59898;52.786;6.892;2022-09-21T05:08:31;9.40;99.90
52669;DHT22;59898;52.786;6.892;2022-09-21T05:12:10;9.40;99.90
52669;DHT22;59898;52.786;6.892;2022-09-21T05:15:31;9.20;99.90
52669;DHT22;59898;52.786;6.892;2022-09-21T05:18:52;8.80;99.90
52669;DHT22;59898;52.786;6.892;2022-09-21T05:22:16;8.60;99.90
52669;DHT22;59898;52.786;6.892;2022-09-21T05:25:37;8.50;99.90
52669;DHT22;59898;52.786;6.892;2022-09-21T05:28:58;8.50;99.90
52669;DHT22;59898;52.786;6.892;2022-09-21T05:39:20;8.40;99.90
52669;DHT22;59898;52.786;6.892;2022-09-21T05:42:41;8.50;99.90
52669;DHT22;59898;52.786;6.892;2022-09-21T05:46:18;8.50;99.90
52669;DHT22;59898;52.786;6.892;2022-09-21T05:57:27;8.60;99.90
52669;DHT22;59898;52.786;6.892;2022-09-21T06:04:30;8.80;99.90
52669;DHT22;59898;52.786;6.892;2022-09-21T06:07:50;8.90;99.90
52669;DHT22;59898;52.786;6.892;2022-09-21T06:11:12;8.90;99.90
52669;DHT22;59898;52.786;6.892;2022-09-21T06:14:33;9.00;99.90
52669;DHT22;59898;52.786;6.892;2022-09-21T06:17:53;9.10;99.90
52669;DHT22;59898;52.786;6.892;2022-09-21T06:21:14;9.30;99.90
52669;DHT22;59898;52.786;6.892;2022-09-21T06:24:35;9.80;99.90
52669;DHT22;59898;52.786;6.892;2022-09-21T06:28:10;10.20;99.90
52669;DHT22;59898;52.786;6.892;2022-09-21T06:31:31;10.60;99.90
52669;DHT22;59898;52.786;6.892;2022-09-21T06:34:52;10.80;99.90
52669;DHT22;59898;52.786;6.892;2022-09-21T06:38:13;11.00;99.90
52669;DHT22;59898;52.786;6.892;2022-09-21T06:41:34;11.20;99.90
52669;DHT22;59898;52.786;6.892;2022-09-21T06:44:54;11.50;99.90
52669;DHT22;59898;52.786;6.892;2022-09-21T06:48:15;12.00;99.90
52669;DHT22;59898;52.786;6.892;2022-09-21T06:51:36;12.80;99.90
52669;DHT22;59898;52.786;6.892;2022-09-21T06:54:56;13.40;99.90
52669;DHT22;59898;52.786;6.892;2022-09-21T06:58:18;14.10;99.90
52669;DHT22;59898;52.786;6.892;2022-09-21T07:01:38;14.60;99.90
52669;DHT22;59898;52.786;6.892;2022-09-21T07:05:00;14.80;99.90
52669;DHT22;59898;52.786;6.892;2022-09-21T07:08:20;14.80;99.90
52669;DHT22;59898;52.786;6.892;2022-09-21T07:11:42;14.80;99.90
52669;DHT22;59898;52.786;6.892;2022-09-21T07:15:04;15.20;99.90
52669;DHT22;59898;52.786;6.892;2022-09-21T07:18:25;15.80;99.90
52669;DHT22;59898;52.786;6.892;2022-09-21T07:21:46;16.30;99.90
52669;DHT22;59898;52.786;6.892;2022-09-21T07:25:07;16.50;99.90
52669;DHT22;59898;52.786;6.892;2022-09-21T07:28:28;16.70;99.90
52669;DHT22;59898;52.786;6.892;2022-09-21T07:31:49;16.90;99.90
52669;DHT22;59898;52.786;6.892;2022-09-21T07:35:09;17.00;99.90
52669;DHT22;59898;52.786;6.892;2022-09-21T07:38:34;17.20;99.90
52669;DHT22;59898;52.786;6.892;2022-09-21T07:41:55;17.10;99.90
52669;DHT22;59898;52.786;6.892;2022-09-21T07:45:18;16.90;99.90
52669;DHT22;59898;52.786;6.892;2022-09-21T07:48:39;17.00;99.90
52669;DHT22;59898;52.786;6.892;2022-09-21T07:52:00;17.40;99.90
52669;DHT22;59898;52.786;6.892;2022-09-21T07:55:20;17.60;99.90
52669;DHT22;59898;52.786;6.892;2022-09-21T07:58:42;17.40;99.90
52669;DHT22;59898;52.786;6.892;2022-09-21T08:02:21;17.30;99.90
52669;DHT22;59898;52.786;6.892;2022-09-21T08:05:42;17.30;99.90
52669;DHT22;59898;52.786;6.892;2022-09-21T08:09:03;17.30;99.90
52669;DHT22;59898;52.786;6.892;2022-09-21T08:12:23;17.20;99.90
52669;DHT22;59898;52.786;6.892;2022-09-21T08:15:44;17.50;99.90
52669;DHT22;59898;52.786;6.892;2022-09-21T08:19:06;17.60;99.90
52669;DHT22;59898;52.786;6.892;2022-09-21T08:22:27;17.60;99.90
52669;DHT22;59898;52.786;6.892;2022-09-21T08:25:48;17.60;99.90
52669;DHT22;59898;52.786;6.892;2022-09-21T08:29:08;17.60;99.90
52669;DHT22;59898;52.786;6.892;2022-09-21T08:32:29;17.60;99.90
52669;DHT22;59898;52.786;6.892;2022-09-21T08:35:54;17.60;99.90
52669;DHT22;59898;52.786;6.892;2022-09-21T08:39:15;17.80;99.90
52669;DHT22;59898;52.786;6.892;2022-09-21T08:42:41;17.80;99.90
52669;DHT22;59898;52.786;6.892;2022-09-21T08:46:16;17.70;99.90
52669;DHT22;59898;52.786;6.892;2022-09-21T08:49:39;17.90;99.90
52669;DHT22;59898;52.786;6.892;2022-09-21T08:53:09;18.00;99.90
52669;DHT22;59898;52.786;6.892;2022-09-21T08:56:31;18.10;99.90
52669;DHT22;59898;52.786;6.892;2022-09-21T08:59:52;18.20;99.90
52669;DHT22;59898;52.786;6.892;2022-09-21T09:07:00;19.10;99.90
52669;DHT22;59898;52.786;6.892;2022-09-21T09:11:02;19.50;99.90
52669;DHT22;59898;52.786;6.892;2022-09-21T09:21:43;20.90;98.60
52669;DHT22;59898;52.786;6.892;2022-09-21T09:25:12;21.10;97.80
52669;DHT22;59898;52.786;6.892;2022-09-21T09:28:44;21.20;97.50
52669;DHT22;59898;52.786;6.892;2022-09-21T09:32:13;21.50;97.30
52669;DHT22;59898;52.786;6.892;2022-09-21T09:38:56;20.90;95.90
52669;DHT22;59898;52.786;6.892;2022-09-21T09:42:40;20.80;96.60
52669;DHT22;59898;52.786;6.892;2022-09-21T09:46:36;20.90;96.70
52669;DHT22;59898;52.786;6.892;2022-09-21T09:53:29;20.70;95.90
52669;DHT22;59898;52.786;6.892;2022-09-21T09:56:51;20.50;95.70
52669;DHT22;59898;52.786;6.892;2022-09-21T10:00:13;20.40;95.80
52669;DHT22;59898;52.786;6.892;2022-09-21T10:03:34;20.70;95.80
52669;DHT22;59898;52.786;6.892;2022-09-21T10:06:55;20.80;95.60
52669;DHT22;59898;52.786;6.892;2022-09-21T10:13:51;20.60;95.10
52669;DHT22;59898;52.786;6.892;2022-09-21T10:17:15;20.40;94.90
52669;DHT22;59898;52.786;6.892;2022-09-21T10:20:37;20.20;94.90
52669;DHT22;59898;52.786;6.892;2022-09-21T10:24:03;20.10;94.90
52669;DHT22;59898;52.786;6.892;2022-09-21T10:27:32;20.30;94.70
52669;DHT22;59898;52.786;6.892;2022-09-21T10:31:18;20.70;94.10
52669;DHT22;59898;52.786;6.892;2022-09-21T10:38:29;20.70;93.60
52669;DHT22;59898;52.786;6.892;2022-09-21T10:48:47;19.80;94.40
52669;DHT22;59898;52.786;6.892;2022-09-21T10:52:08;19.60;94.50
52669;DHT22;59898;52.786;6.892;2022-09-21T10:55:29;19.60;94.50
52669;DHT22;59898;52.786;6.892;2022-09-21T11:02:36;19.90;94.10
52669;DHT22;59898;52.786;6.892;2022-09-21T11:06:03;20.00;93.50
52669;DHT22;59898;52.786;6.892;2022-09-21T11:09:46;20.00;93.10
52669;DHT22;59898;52.786;6.892;2022-09-21T11:13:14;19.80;93.00
52669;DHT22;59898;52.786;6.892;2022-09-21T11:21:01;19.50;92.60
52669;DHT22;59898;52.786;6.892;2022-09-21T11:24:31;19.30;92.30
52669;DHT22;59898;52.786;6.892;2022-09-21T11:28:09;19.10;92.30
52669;DHT22;59898;52.786;6.892;2022-09-21T11:31:48;18.90;92.50
52669;DHT22;59898;52.786;6.892;2022-09-21T11:35:34;18.90;92.70
52669;DHT22;59898;52.786;6.892;2022-09-21T11:46:19;18.70;93.10
52669;DHT22;59898;52.786;6.892;2022-09-21T11:50:19;18.70;93.10
52669;DHT22;59898;52.786;6.892;2022-09-21T11:57:49;18.80;92.80
52669;DHT22;59898;52.786;6.892;2022-09-21T12:09:13;19.70;92.50
52669;DHT22;59898;52.786;6.892;2022-09-21T12:20:24;20.50;92.30
52669;DHT22;59898;52.786;6.892;2022-09-21T12:23:58;20.70;91.70
52669;DHT22;59898;52.786;6.892;2022-09-21T12:27:30;21.00;91.20
52669;DHT22;59898;52.786;6.892;2022-09-21T12:30:57;21.10;91.30
52669;DHT22;59898;52.786;6.892;2022-09-21T12:34:30;21.30;91.10
52669;DHT22;59898;52.786;6.892;2022-09-21T12:38:04;21.50;90.40
52669;DHT22;59898;52.786;6.892;2022-09-21T12:45:43;21.70;90.50
52669;DHT22;59898;52.786;6.892;2022-09-21T12:48:38;21.90;89.60
52669;DHT22;59898;52.786;6.892;2022-09-21T12:52:01;21.90;89.50
52669;DHT22;59898;52.786;6.892;2022-09-21T13:06:33;22.30;85.70
52669;DHT22;59898;52.786;6.892;2022-09-21T13:09:56;22.20;86.50
52669;DHT22;59898;52.786;6.892;2022-09-21T13:13:25;22.40;86.00
52669;DHT22;59898;52.786;6.892;2022-09-21T13:16:53;22.40;85.70
52669;DHT22;59898;52.786;6.892;2022-09-21T13:20:19;22.40;85.50
52669;DHT22;59898;52.786;6.892;2022-09-21T13:23:41;22.30;85.00
52669;DHT22;59898;52.786;6.892;2022-09-21T13:27:02;22.40;84.80
52669;DHT22;59898;52.786;6.892;2022-09-21T13:37:34;22.60;84.90
52669;DHT22;59898;52.786;6.892;2022-09-21T13:41:01;22.60;84.00
52669;DHT22;59898;52.786;6.892;2022-09-21T13:44:40;22.70;83.80
52669;DHT22;59898;52.786;6.892;2022-09-21T13:48:16;22.60;82.80
52669;DHT22;59898;52.786;6.892;2022-09-21T13:55:38;22.70;83.40
52669;DHT22;59898;52.786;6.892;2022-09-21T13:59:00;22.70;83.90
52669;DHT22;59898;52.786;6.892;2022-09-21T14:06:00;22.70;82.50
52669;DHT22;59898;52.786;6.892;2022-09-21T14:09:30;22.60;82.60
52669;DHT22;59898;52.786;6.892;2022-09-21T14:12:52;22.70;82.20
52669;DHT22;59898;52.786;6.892;2022-09-21T14:30:25;22.10;79.30
52669;DHT22;59898;52.786;6.892;2022-09-21T14:33:54;22.00;77.00
52669;DHT22;59898;52.786;6.892;2022-09-21T14:40:46;21.40;79.80
52669;DHT22;59898;52.786;6.892;2022-09-21T14:44:17;21.50;80.50
52669;DHT22;59898;52.786;6.892;2022-09-21T14:51:30;21.90;80.60
52669;DHT22;59898;52.786;6.892;2022-09-21T14:59:05;22.20;79.10
52669;DHT22;59898;52.786;6.892;2022-09-21T15:02:31;22.20;80.00
52669;DHT22;59898;52.786;6.892;2022-09-21T15:17:31;22.10;79.40
52669;DHT22;59898;52.786;6.892;2022-09-21T15:21:01;22.00;80.00
52669;DHT22;59898;52.786;6.892;2022-09-21T15:24:30;22.00;79.30
52669;DHT22;59898;52.786;6.892;2022-09-21T15:27:52;22.00;79.00
52669;DHT22;59898;52.786;6.892;2022-09-21T15:31:17;22.00;78.70
52669;DHT22;59898;52.786;6.892;2022-09-21T15:34:38;22.00;78.90
52669;DHT22;59898;52.786;6.892;2022-09-21T15:37:59;22.00;79.00
52669;DHT22;59898;52.786;6.892;2022-09-21T15:45:19;21.90;79.10
52669;DHT22;59898;52.786;6.892;2022-09-21T15:48:40;21.80;79.50
52669;DHT22;59898;52.786;6.892;2022-09-21T15:52:02;21.70;80.40
52669;DHT22;59898;52.786;6.892;2022-09-21T15:55:25;21.60;79.20
52669;DHT22;59898;52.786;6.892;2022-09-21T15:58:50;21.50;79.20
52669;DHT22;59898;52.786;6.892;2022-09-21T16:02:20;21.50;78.90
52669;DHT22;59898;52.786;6.892;2022-09-21T16:05:48;21.40;78.80
52669;DHT22;59898;52.786;6.892;2022-09-21T16:12:50;21.20;79.00
52669;DHT22;59898;52.786;6.892;2022-09-21T16:16:19;21.00;77.90
52669;DHT22;59898;52.786;6.892;2022-09-21T16:19:42;20.50;77.50
52669;DHT22;59898;52.786;6.892;2022-09-21T16:23:15;20.20;78.20
52669;DHT22;59898;52.786;6.892;2022-09-21T16:26:37;20.20;78.80
52669;DHT22;59898;52.786;6.892;2022-09-21T16:29:58;20.30;78.80
52669;DHT22;59898;52.786;6.892;2022-09-21T16:37:22;20.40;79.00
52669;DHT22;59898;52.786;6.892;2022-09-21T16:40:45;20.40;78.90
52669;DHT22;59898;52.786;6.892;2022-09-21T16:44:17;20.30;79.00
52669;DHT22;59898;52.786;6.892;2022-09-21T16:47:42;20.30;78.90
52669;DHT22;59898;52.786;6.892;2022-09-21T16:51:04;20.20;78.90
52669;DHT22;59898;52.786;6.892;2022-09-21T16:54:28;20.30;78.80
52669;DHT22;59898;52.786;6.892;2022-09-21T16:57:49;20.30;79.30
52669;DHT22;59898;52.786;6.892;2022-09-21T17:01:17;20.30;79.80
52669;DHT22;59898;52.786;6.892;2022-09-21T17:04:41;20.30;79.80
52669;DHT22;59898;52.786;6.892;2022-09-21T17:08:02;20.20;79.80
52669;DHT22;59898;52.786;6.892;2022-09-21T17:11:24;20.20;79.90
52669;DHT22;59898;52.786;6.892;2022-09-21T17:14:44;20.10;79.90
52669;DHT22;59898;52.786;6.892;2022-09-21T17:18:05;20.10;80.00
52669;DHT22;59898;52.786;6.892;2022-09-21T17:21:26;20.00;80.00
52669;DHT22;59898;52.786;6.892;2022-09-21T17:24:48;19.70;80.00
52669;DHT22;59898;52.786;6.892;2022-09-21T17:28:13;19.60;80.20
52669;DHT22;59898;52.786;6.892;2022-09-21T17:31:34;19.40;80.30
52669;DHT22;59898;52.786;6.892;2022-09-21T17:38:50;19.20;81.60
52669;DHT22;59898;52.786;6.892;2022-09-21T17:42:18;19.00;82.30
52669;DHT22;59898;52.786;6.892;2022-09-21T17:45:48;18.80;82.90
52669;DHT22;59898;52.786;6.892;2022-09-21T17:49:11;18.60;83.30
52669;DHT22;59898;52.786;6.892;2022-09-21T17:52:32;18.30;84.50
52669;DHT22;59898;52.786;6.892;2022-09-21T17:56:32;17.90;86.30
52669;DHT22;59898;52.786;6.892;2022-09-21T17:59:58;17.40;87.90
52669;DHT22;59898;52.786;6.892;2022-09-21T18:03:23;16.90;88.10
52669;DHT22;59898;52.786;6.892;2022-09-21T18:06:44;16.60;90.00
52669;DHT22;59898;52.786;6.892;2022-09-21T18:10:07;16.30;90.20
52669;DHT22;59898;52.786;6.892;2022-09-21T18:21:21;15.70;91.70
52669;DHT22;59898;52.786;6.892;2022-09-21T18:24:45;15.50;92.10
52669;DHT22;59898;52.786;6.892;2022-09-21T18:28:13;15.30;92.50
52669;DHT22;59898;52.786;6.892;2022-09-21T18:35:34;14.90;93.60
52669;DHT22;59898;52.786;6.892;2022-09-21T18:46:23;14.50;94.30
52669;DHT22;59898;52.786;6.892;2022-09-21T18:49:54;14.40;94.70
52669;DHT22;59898;52.786;6.892;2022-09-21T18:53:45;14.30;95.10
52669;DHT22;59898;52.786;6.892;2022-09-21T18:57:13;14.40;95.40
52669;DHT22;59898;52.786;6.892;2022-09-21T19:00:34;14.40;95.60
52669;DHT22;59898;52.786;6.892;2022-09-21T19:03:55;14.50;95.60
52669;DHT22;59898;52.786;6.892;2022-09-21T19:07:36;14.70;96.00
52669;DHT22;59898;52.786;6.892;2022-09-21T19:11:30;14.80;95.70
52669;DHT22;59898;52.786;6.892;2022-09-21T19:26:12;14.30;96.50
52669;DHT22;59898;52.786;6.892;2022-09-21T19:33:26;13.70;96.90
52669;DHT22;59898;52.786;6.892;2022-09-21T19:36:48;13.60;97.30
52669;DHT22;59898;52.786;6.892;2022-09-21T19:40:09;13.50;97.60
52669;DHT22;59898;52.786;6.892;2022-09-21T19:47:06;13.20;98.20
52669;DHT22;59898;52.786;6.892;2022-09-21T19:50:52;13.20;98.40
52669;DHT22;59898;52.786;6.892;2022-09-21T19:54:22;13.30;98.60
52669;DHT22;59898;52.786;6.892;2022-09-21T19:58:02;13.40;98.80
52669;DHT22;59898;52.786;6.892;2022-09-21T20:01:50;13.40;98.90
52669;DHT22;59898;52.786;6.892;2022-09-21T20:09:17;13.70;99.10
52669;DHT22;59898;52.786;6.892;2022-09-21T20:12:49;13.70;99.10
52669;DHT22;59898;52.786;6.892;2022-09-21T20:20:02;13.40;99.40
52669;DHT22;59898;52.786;6.892;2022-09-21T20:23:28;13.10;99.60
52669;DHT22;59898;52.786;6.892;2022-09-21T20:26:50;13.00;99.80
52669;DHT22;59898;52.786;6.892;2022-09-21T20:30:13;12.90;99.90
52669;DHT22;59898;52.786;6.892;2022-09-21T20:33:34;12.90;99.90
52669;DHT22;59898;52.786;6.892;2022-09-21T20:36:56;12.70;99.90
52669;DHT22;59898;52.786;6.892;2022-09-21T20:40:17;12.60;99.90
52669;DHT22;59898;52.786;6.892;2022-09-21T20:43:39;12.60;99.90
52669;DHT22;59898;52.786;6.892;2022-09-21T20:47:00;12.70;99.90
52669;DHT22;59898;52.786;6.892;2022-09-21T20:50:21;12.90;99.90
52669;DHT22;59898;52.786;6.892;2022-09-21T20:53:46;13.00;99.90
52669;DHT22;59898;52.786;6.892;2022-09-21T20:57:07;13.20;99.90
52669;DHT22;59898;52.786;6.892;2022-09-21T21:00:27;13.20;99.90
52669;DHT22;59898;52.786;6.892;2022-09-21T21:03:48;13.10;99.90
52669;DHT22;59898;52.786;6.892;2022-09-21T21:07:09;13.10;99.90
52669;DHT22;59898;52.786;6.892;2022-09-21T21:10:30;12.80;99.90
52669;DHT22;59898;52.786;6.892;2022-09-21T21:13:51;12.70;99.90
52669;DHT22;59898;52.786;6.892;2022-09-21T21:17:12;12.70;99.90
52669;DHT22;59898;52.786;6.892;2022-09-21T21:20:36;12.60;99.90
52669;DHT22;59898;52.786;6.892;2022-09-21T21:23:57;12.60;99.90
52669;DHT22;59898;52.786;6.892;2022-09-21T21:27:37;12.40;99.90
52669;DHT22;59898;52.786;6.892;2022-09-21T21:30:58;12.30;99.90
52669;DHT22;59898;52.786;6.892;2022-09-21T21:34:18;12.40;99.90
52669;DHT22;59898;52.786;6.892;2022-09-21T21:37:39;12.40;99.90
52669;DHT22;59898;52.786;6.892;2022-09-21T21:41:00;12.40;99.90
52669;DHT22;59898;52.786;6.892;2022-09-21T21:44:20;12.50;99.90
52669;DHT22;59898;52.786;6.892;2022-09-21T21:47:41;12.40;99.90
52669;DHT22;59898;52.786;6.892;2022-09-21T21:51:04;12.40;99.90
52669;DHT22;59898;52.786;6.892;2022-09-21T21:54:25;12.30;99.90
52669;DHT22;59898;52.786;6.892;2022-09-21T21:57:46;12.30;99.90
52669;DHT22;59898;52.786;6.892;2022-09-21T22:01:13;12.30;99.90
52669;DHT22;59898;52.786;6.892;2022-09-21T22:04:35;12.30;99.90
52669;DHT22;59898;52.786;6.892;2022-09-21T22:07:55;12.40;99.90
52669;DHT22;59898;52.786;6.892;2022-09-21T22:11:17;12.40;99.90
52669;DHT22;59898;52.786;6.892;2022-09-21T22:14:38;12.40;99.90
52669;DHT22;59898;52.786;6.892;2022-09-21T22:17:59;12.20;99.90
52669;DHT22;59898;52.786;6.892;2022-09-21T22:21:21;12.00;99.90
52669;DHT22;59898;52.786;6.892;2022-09-21T22:24:42;11.80;99.90
52669;DHT22;59898;52.786;6.892;2022-09-21T22:28:02;11.60;99.90
52669;DHT22;59898;52.786;6.892;2022-09-21T22:31:27;11.50;99.90
52669;DHT22;59898;52.786;6.892;2022-09-21T22:34:47;11.50;99.90
52669;DHT22;59898;52.786;6.892;2022-09-21T22:38:09;11.40;99.90
52669;DHT22;59898;52.786;6.892;2022-09-21T22:41:37;11.40;99.90
52669;DHT22;59898;52.786;6.892;2022-09-21T22:44:58;11.30;99.90
52669;DHT22;59898;52.786;6.892;2022-09-21T22:48:19;11.30;99.90
52669;DHT22;59898;52.786;6.892;2022-09-21T22:51:39;11.30;99.90
52669;DHT22;59898;52.786;6.892;2022-09-21T22:55:00;11.30;99.90
52669;DHT22;59898;52.786;6.892;2022-09-21T22:58:21;11.30;99.90
52669;DHT22;59898;52.786;6.892;2022-09-21T23:01:41;11.20;99.90
52669;DHT22;59898;52.786;6.892;2022-09-21T23:05:02;11.20;99.90
52669;DHT22;59898;52.786;6.892;2022-09-21T23:08:24;11.10;99.90
52669;DHT22;59898;52.786;6.892;2022-09-21T23:11:46;11.10;99.90
52669;DHT22;59898;52.786;6.892;2022-09-21T23:15:07;10.90;99.90
52669;DHT22;59898;52.786;6.892;2022-09-21T23:18:28;10.80;99.90
52669;DHT22;59898;52.786;6.892;2022-09-21T23:21:49;10.70;99.90
52669;DHT22;59898;52.786;6.892;2022-09-21T23:25:10;10.70;99.90
52669;DHT22;59898;52.786;6.892;2022-09-21T23:28:32;10.60;99.90
52669;DHT22;59898;52.786;6.892;2022-09-21T23:31:53;10.60;99.90
52669;DHT22;59898;52.786;6.892;2022-09-21T23:35:13;10.70;99.90
52669;DHT22;59898;52.786;6.892;2022-09-21T23:38:34;10.60;99.90
52669;DHT22;59898;52.786;6.892;2022-09-21T23:41:55;10.50;99.90
52669;DHT22;59898;52.786;6.892;2022-09-21T23:45:16;10.50;99.90
52669;DHT22;59898;52.786;6.892;2022-09-21T23:48:37;10.40;99.90
52669;DHT22;59898;52.786;6.892;2022-09-21T23:51:58;10.40;99.90
52669;DHT22;59898;52.786;6.892;2022-09-21T23:55:18;10.40;99.90
52669;DHT22;59898;52.786;6.892;2022-09-21T23:58:39;10.40;99.90
